sensor_id;sensor_type;location;lat;lon;timestamp;P1;durP1;ratioP1;P2;durP2;ratioP2
17384;SDS011;8810;48.680;8.894;2023-03-04T00:01:27;37.50;;;15.87;;
17384;SDS011;8810;48.680;8.894;2023-03-04T00:03:54;37.80;;;16.10;;
17384;SDS011;8810;48.680;8.894;2023-03-04T00:06:20;39.97;;;16.63;;
17384;SDS011;8810;48.680;8.894;2023-03-04T00:08:47;37.13;;;15.20;;
17384;SDS011;8810;48.680;8.894;2023-03-04T00:11:14;38.50;;;15.80;;
17384;SDS011;8810;48.680;8.894;2023-03-04T00:13:41;38.20;;;16.27;;
17384;SDS011;8810;48.680;8.894;2023-03-04T00:16:08;36.87;;;15.63;;
17384;SDS011;8810;48.680;8.894;2023-03-04T00:18:36;41.27;;;16.40;;
17384;SDS011;8810;48.680;8.894;2023-03-04T00:21:03;34.17;;;15.10;;
17384;SDS011;8810;48.680;8.894;2023-03-04T00:23:30;32.60;;;14.83;;
17384;SDS011;8810;48.680;8.894;2023-03-04T00:25:57;33.83;;;14.70;;
17384;SDS011;8810;48.680;8.894;2023-03-04T00:28:24;37.20;;;16.17;;
17384;SDS011;8810;48.680;8.894;2023-03-04T00:30:51;34.57;;;14.80;;
17384;SDS011;8810;48.680;8.894;2023-03-04T00:33:17;37.90;;;14.60;;
17384;SDS011;8810;48.680;8.894;2023-03-04T00:35:46;38.63;;;16.47;;
17384;SDS011;8810;48.680;8.894;2023-03-04T00:38:12;38.00;;;16.00;;
17384;SDS011;8810;48.680;8.894;2023-03-04T00:40:39;34.47;;;14.77;;
17384;SDS011;8810;48.680;8.894;2023-03-04T00:43:06;37.83;;;15.30;;
17384;SDS011;8810;48.680;8.894;2023-03-04T00:45:33;35.13;;;15.57;;
17384;SDS011;8810;48.680;8.894;2023-03-04T00:48:00;39.50;;;16.07;;
17384;SDS011;8810;48.680;8.894;2023-03-04T00:50:27;38.67;;;15.97;;
17384;SDS011;8810;48.680;8.894;2023-03-04T00:52:55;36.90;;;15.80;;
17384;SDS011;8810;48.680;8.894;2023-03-04T00:55:22;39.17;;;15.33;;
17384;SDS011;8810;48.680;8.894;2023-03-04T00:57:49;38.33;;;16.90;;
17384;SDS011;8810;48.680;8.894;2023-03-04T01:00:16;35.83;;;15.33;;
17384;SDS011;8810;48.680;8.894;2023-03-04T01:02:43;41.57;;;15.53;;
17384;SDS011;8810;48.680;8.894;2023-03-04T01:05:10;35.00;;;15.30;;
17384;SDS011;8810;48.680;8.894;2023-03-04T01:07:37;35.57;;;15.23;;
17384;SDS011;8810;48.680;8.894;2023-03-04T01:10:07;39.03;;;15.90;;
17384;SDS011;8810;48.680;8.894;2023-03-04T01:12:35;39.67;;;15.87;;
17384;SDS011;8810;48.680;8.894;2023-03-04T01:15:02;41.47;;;16.20;;
17384;SDS011;8810;48.680;8.894;2023-03-04T01:17:29;36.90;;;15.57;;
17384;SDS011;8810;48.680;8.894;2023-03-04T01:19:56;33.57;;;14.57;;
17384;SDS011;8810;48.680;8.894;2023-03-04T01:22:23;43.47;;;16.80;;
17384;SDS011;8810;48.680;8.894;2023-03-04T01:24:50;38.67;;;15.73;;
17384;SDS011;8810;48.680;8.894;2023-03-04T01:27:18;36.67;;;14.67;;
17384;SDS011;8810;48.680;8.894;2023-03-04T01:29:45;39.73;;;16.00;;
17384;SDS011;8810;48.680;8.894;2023-03-04T01:32:12;33.63;;;15.20;;
17384;SDS011;8810;48.680;8.894;2023-03-04T01:34:38;37.97;;;15.97;;
17384;SDS011;8810;48.680;8.894;2023-03-04T01:37:05;38.17;;;14.93;;
17384;SDS011;8810;48.680;8.894;2023-03-04T01:39:33;39.23;;;15.93;;
17384;SDS011;8810;48.680;8.894;2023-03-04T01:42:00;37.47;;;14.73;;
17384;SDS011;8810;48.680;8.894;2023-03-04T01:44:28;39.33;;;15.17;;
17384;SDS011;8810;48.680;8.894;2023-03-04T01:46:55;36.33;;;14.00;;
17384;SDS011;8810;48.680;8.894;2023-03-04T01:49:22;40.10;;;15.40;;
17384;SDS011;8810;48.680;8.894;2023-03-04T01:51:50;32.83;;;14.00;;
17384;SDS011;8810;48.680;8.894;2023-03-04T01:54:19;38.00;;;13.70;;
17384;SDS011;8810;48.680;8.894;2023-03-04T01:56:47;37.30;;;14.90;;
17384;SDS011;8810;48.680;8.894;2023-03-04T01:59:17;38.60;;;13.97;;
17384;SDS011;8810;48.680;8.894;2023-03-04T02:01:47;41.27;;;14.27;;
17384;SDS011;8810;48.680;8.894;2023-03-04T02:04:15;38.33;;;14.77;;
17384;SDS011;8810;48.680;8.894;2023-03-04T02:06:43;37.00;;;14.70;;
17384;SDS011;8810;48.680;8.894;2023-03-04T02:09:11;34.43;;;14.87;;
17384;SDS011;8810;48.680;8.894;2023-03-04T02:11:39;36.50;;;14.23;;
17384;SDS011;8810;48.680;8.894;2023-03-04T02:14:06;36.73;;;14.97;;
17384;SDS011;8810;48.680;8.894;2023-03-04T02:16:34;39.53;;;15.47;;
17384;SDS011;8810;48.680;8.894;2023-03-04T02:19:03;37.80;;;14.83;;
17384;SDS011;8810;48.680;8.894;2023-03-04T02:21:33;43.37;;;15.53;;
17384;SDS011;8810;48.680;8.894;2023-03-04T02:24:02;43.37;;;15.10;;
17384;SDS011;8810;48.680;8.894;2023-03-04T02:26:37;39.87;;;14.37;;
17384;SDS011;8810;48.680;8.894;2023-03-04T02:29:07;41.93;;;15.33;;
17384;SDS011;8810;48.680;8.894;2023-03-04T02:31:36;36.83;;;15.37;;
17384;SDS011;8810;48.680;8.894;2023-03-04T02:34:05;35.77;;;15.10;;
17384;SDS011;8810;48.680;8.894;2023-03-04T02:36:36;35.87;;;14.00;;
17384;SDS011;8810;48.680;8.894;2023-03-04T02:39:04;35.10;;;13.63;;
17384;SDS011;8810;48.680;8.894;2023-03-04T02:41:37;36.30;;;14.63;;
17384;SDS011;8810;48.680;8.894;2023-03-04T02:44:08;31.87;;;13.83;;
17384;SDS011;8810;48.680;8.894;2023-03-04T02:46:41;32.90;;;14.33;;
17384;SDS011;8810;48.680;8.894;2023-03-04T02:49:08;35.13;;;14.83;;
17384;SDS011;8810;48.680;8.894;2023-03-04T02:51:34;37.53;;;14.37;;
17384;SDS011;8810;48.680;8.894;2023-03-04T02:54:01;33.93;;;13.90;;
17384;SDS011;8810;48.680;8.894;2023-03-04T02:56:28;31.83;;;13.77;;
17384;SDS011;8810;48.680;8.894;2023-03-04T02:58:57;37.43;;;14.93;;
17384;SDS011;8810;48.680;8.894;2023-03-04T03:01:26;34.17;;;14.07;;
17384;SDS011;8810;48.680;8.894;2023-03-04T03:03:53;31.33;;;13.97;;
17384;SDS011;8810;48.680;8.894;2023-03-04T03:06:20;34.33;;;13.87;;
17384;SDS011;8810;48.680;8.894;2023-03-04T03:08:47;33.50;;;13.83;;
17384;SDS011;8810;48.680;8.894;2023-03-04T03:11:14;36.30;;;14.07;;
17384;SDS011;8810;48.680;8.894;2023-03-04T03:13:41;38.67;;;15.37;;
17384;SDS011;8810;48.680;8.894;2023-03-04T03:16:09;33.63;;;14.23;;
17384;SDS011;8810;48.680;8.894;2023-03-04T03:18:36;36.00;;;14.57;;
17384;SDS011;8810;48.680;8.894;2023-03-04T03:21:03;35.07;;;13.93;;
17384;SDS011;8810;48.680;8.894;2023-03-04T03:23:30;36.63;;;14.43;;
17384;SDS011;8810;48.680;8.894;2023-03-04T03:25:56;37.50;;;14.43;;
17384;SDS011;8810;48.680;8.894;2023-03-04T03:28:23;35.50;;;14.60;;
17384;SDS011;8810;48.680;8.894;2023-03-04T03:30:50;42.67;;;15.10;;
17384;SDS011;8810;48.680;8.894;2023-03-04T03:33:18;35.20;;;14.50;;
17384;SDS011;8810;48.680;8.894;2023-03-04T03:35:45;37.00;;;14.07;;
17384;SDS011;8810;48.680;8.894;2023-03-04T03:38:12;32.60;;;14.17;;
17384;SDS011;8810;48.680;8.894;2023-03-04T03:40:39;40.03;;;14.53;;
17384;SDS011;8810;48.680;8.894;2023-03-04T03:43:06;37.13;;;14.37;;
17384;SDS011;8810;48.680;8.894;2023-03-04T03:45:32;37.13;;;14.17;;
17384;SDS011;8810;48.680;8.894;2023-03-04T03:47:59;37.43;;;14.47;;
17384;SDS011;8810;48.680;8.894;2023-03-04T03:50:27;37.07;;;14.70;;
17384;SDS011;8810;48.680;8.894;2023-03-04T03:52:54;37.93;;;14.67;;
17384;SDS011;8810;48.680;8.894;2023-03-04T03:55:21;32.03;;;12.67;;
17384;SDS011;8810;48.680;8.894;2023-03-04T03:57:48;33.93;;;13.47;;
17384;SDS011;8810;48.680;8.894;2023-03-04T04:00:15;31.80;;;13.23;;
17384;SDS011;8810;48.680;8.894;2023-03-04T04:02:42;32.23;;;13.33;;
17384;SDS011;8810;48.680;8.894;2023-03-04T04:05:10;32.80;;;13.90;;
17384;SDS011;8810;48.680;8.894;2023-03-04T04:07:39;44.50;;;15.20;;
17384;SDS011;8810;48.680;8.894;2023-03-04T04:10:07;35.27;;;14.53;;
17384;SDS011;8810;48.680;8.894;2023-03-04T04:12:35;33.33;;;14.23;;
17384;SDS011;8810;48.680;8.894;2023-03-04T04:15:03;36.67;;;13.87;;
17384;SDS011;8810;48.680;8.894;2023-03-04T04:17:30;42.00;;;14.83;;
17384;SDS011;8810;48.680;8.894;2023-03-04T04:19:57;36.73;;;14.10;;
17384;SDS011;8810;48.680;8.894;2023-03-04T04:22:24;35.20;;;13.37;;
17384;SDS011;8810;48.680;8.894;2023-03-04T04:24:52;33.73;;;13.30;;
17384;SDS011;8810;48.680;8.894;2023-03-04T04:27:19;38.53;;;14.90;;
17384;SDS011;8810;48.680;8.894;2023-03-04T04:29:46;36.30;;;15.03;;
17384;SDS011;8810;48.680;8.894;2023-03-04T04:32:13;33.27;;;13.97;;
17384;SDS011;8810;48.680;8.894;2023-03-04T04:34:40;35.23;;;13.87;;
17384;SDS011;8810;48.680;8.894;2023-03-04T04:37:07;35.13;;;13.77;;
17384;SDS011;8810;48.680;8.894;2023-03-04T04:39:34;38.53;;;13.67;;
17384;SDS011;8810;48.680;8.894;2023-03-04T04:42:02;35.60;;;14.37;;
17384;SDS011;8810;48.680;8.894;2023-03-04T04:44:29;36.87;;;13.27;;
17384;SDS011;8810;48.680;8.894;2023-03-04T04:46:56;34.13;;;13.80;;
17384;SDS011;8810;48.680;8.894;2023-03-04T04:49:23;39.97;;;14.90;;
17384;SDS011;8810;48.680;8.894;2023-03-04T04:51:49;30.03;;;12.63;;
17384;SDS011;8810;48.680;8.894;2023-03-04T04:54:16;35.50;;;13.93;;
17384;SDS011;8810;48.680;8.894;2023-03-04T04:56:44;37.03;;;13.87;;
17384;SDS011;8810;48.680;8.894;2023-03-04T04:59:12;28.37;;;12.67;;
17384;SDS011;8810;48.680;8.894;2023-03-04T05:01:39;41.87;;;13.77;;
17384;SDS011;8810;48.680;8.894;2023-03-04T05:04:06;41.80;;;15.23;;
17384;SDS011;8810;48.680;8.894;2023-03-04T05:06:33;33.77;;;14.17;;
17384;SDS011;8810;48.680;8.894;2023-03-04T05:09:00;31.00;;;14.20;;
17384;SDS011;8810;48.680;8.894;2023-03-04T05:11:27;38.47;;;14.40;;
17384;SDS011;8810;48.680;8.894;2023-03-04T05:13:54;35.00;;;13.97;;
17384;SDS011;8810;48.680;8.894;2023-03-04T05:16:22;32.80;;;13.83;;
17384;SDS011;8810;48.680;8.894;2023-03-04T05:18:49;32.83;;;13.60;;
17384;SDS011;8810;48.680;8.894;2023-03-04T05:21:16;33.30;;;13.13;;
17384;SDS011;8810;48.680;8.894;2023-03-04T05:23:43;32.20;;;12.20;;
17384;SDS011;8810;48.680;8.894;2023-03-04T05:26:10;35.83;;;13.00;;
17384;SDS011;8810;48.680;8.894;2023-03-04T05:28:39;27.63;;;11.90;;
17384;SDS011;8810;48.680;8.894;2023-03-04T05:31:06;38.30;;;13.47;;
17384;SDS011;8810;48.680;8.894;2023-03-04T05:33:34;37.40;;;13.87;;
17384;SDS011;8810;48.680;8.894;2023-03-04T05:36:01;37.03;;;14.53;;
17384;SDS011;8810;48.680;8.894;2023-03-04T05:38:28;35.57;;;14.07;;
17384;SDS011;8810;48.680;8.894;2023-03-04T05:40:56;35.90;;;13.50;;
17384;SDS011;8810;48.680;8.894;2023-03-04T05:43:24;30.00;;;12.63;;
17384;SDS011;8810;48.680;8.894;2023-03-04T05:45:51;38.33;;;13.43;;
17384;SDS011;8810;48.680;8.894;2023-03-04T05:48:19;33.60;;;12.63;;
17384;SDS011;8810;48.680;8.894;2023-03-04T05:50:51;32.83;;;13.77;;
17384;SDS011;8810;48.680;8.894;2023-03-04T05:53:18;35.30;;;14.13;;
17384;SDS011;8810;48.680;8.894;2023-03-04T05:55:45;38.60;;;13.57;;
17384;SDS011;8810;48.680;8.894;2023-03-04T05:58:12;31.40;;;13.00;;
17384;SDS011;8810;48.680;8.894;2023-03-04T06:00:39;30.37;;;12.97;;
17384;SDS011;8810;48.680;8.894;2023-03-04T06:03:06;31.57;;;13.17;;
17384;SDS011;8810;48.680;8.894;2023-03-04T06:05:39;32.80;;;12.87;;
17384;SDS011;8810;48.680;8.894;2023-03-04T06:08:07;30.13;;;12.33;;
17384;SDS011;8810;48.680;8.894;2023-03-04T06:10:34;33.33;;;11.93;;
17384;SDS011;8810;48.680;8.894;2023-03-04T06:13:01;34.60;;;13.50;;
17384;SDS011;8810;48.680;8.894;2023-03-04T06:15:28;34.80;;;12.90;;
17384;SDS011;8810;48.680;8.894;2023-03-04T06:17:55;32.80;;;13.57;;
17384;SDS011;8810;48.680;8.894;2023-03-04T06:20:22;34.43;;;13.23;;
17384;SDS011;8810;48.680;8.894;2023-03-04T06:22:49;36.03;;;13.43;;
17384;SDS011;8810;48.680;8.894;2023-03-04T06:25:17;27.67;;;12.90;;
17384;SDS011;8810;48.680;8.894;2023-03-04T06:27:44;30.60;;;12.97;;
17384;SDS011;8810;48.680;8.894;2023-03-04T06:30:11;30.83;;;12.27;;
17384;SDS011;8810;48.680;8.894;2023-03-04T06:32:40;32.80;;;11.67;;
17384;SDS011;8810;48.680;8.894;2023-03-04T06:35:08;31.13;;;12.37;;
17384;SDS011;8810;48.680;8.894;2023-03-04T06:37:35;36.13;;;13.23;;
17384;SDS011;8810;48.680;8.894;2023-03-04T06:40:03;31.97;;;14.83;;
17384;SDS011;8810;48.680;8.894;2023-03-04T06:42:33;34.87;;;14.37;;
17384;SDS011;8810;48.680;8.894;2023-03-04T06:45:00;37.70;;;14.60;;
17384;SDS011;8810;48.680;8.894;2023-03-04T06:47:28;35.67;;;12.50;;
17384;SDS011;8810;48.680;8.894;2023-03-04T06:49:55;32.00;;;13.77;;
17384;SDS011;8810;48.680;8.894;2023-03-04T06:52:22;34.83;;;13.50;;
17384;SDS011;8810;48.680;8.894;2023-03-04T06:54:49;32.67;;;12.70;;
17384;SDS011;8810;48.680;8.894;2023-03-04T06:57:16;31.03;;;13.53;;
17384;SDS011;8810;48.680;8.894;2023-03-04T06:59:44;35.17;;;13.13;;
17384;SDS011;8810;48.680;8.894;2023-03-04T07:02:11;34.07;;;13.60;;
17384;SDS011;8810;48.680;8.894;2023-03-04T07:04:38;34.63;;;14.43;;
17384;SDS011;8810;48.680;8.894;2023-03-04T07:07:05;33.70;;;14.10;;
17384;SDS011;8810;48.680;8.894;2023-03-04T07:09:32;35.50;;;14.17;;
17384;SDS011;8810;48.680;8.894;2023-03-04T07:11:59;36.53;;;14.53;;
17384;SDS011;8810;48.680;8.894;2023-03-04T07:14:26;35.17;;;14.73;;
17384;SDS011;8810;48.680;8.894;2023-03-04T07:16:54;39.27;;;15.77;;
17384;SDS011;8810;48.680;8.894;2023-03-04T07:19:21;38.93;;;14.83;;
17384;SDS011;8810;48.680;8.894;2023-03-04T07:21:48;37.83;;;14.83;;
17384;SDS011;8810;48.680;8.894;2023-03-04T07:24:15;36.20;;;15.53;;
17384;SDS011;8810;48.680;8.894;2023-03-04T07:26:42;40.57;;;16.53;;
17384;SDS011;8810;48.680;8.894;2023-03-04T07:29:12;39.33;;;16.93;;
17384;SDS011;8810;48.680;8.894;2023-03-04T07:31:39;37.37;;;16.17;;
17384;SDS011;8810;48.680;8.894;2023-03-04T07:34:09;37.97;;;17.13;;
17384;SDS011;8810;48.680;8.894;2023-03-04T07:36:37;31.77;;;13.90;;
17384;SDS011;8810;48.680;8.894;2023-03-04T07:39:05;30.80;;;13.37;;
17384;SDS011;8810;48.680;8.894;2023-03-04T07:41:32;32.20;;;13.87;;
17384;SDS011;8810;48.680;8.894;2023-03-04T07:44:00;30.67;;;13.87;;
17384;SDS011;8810;48.680;8.894;2023-03-04T07:46:28;30.77;;;12.83;;
17384;SDS011;8810;48.680;8.894;2023-03-04T07:48:55;34.27;;;12.83;;
17384;SDS011;8810;48.680;8.894;2023-03-04T07:51:24;33.43;;;13.80;;
17384;SDS011;8810;48.680;8.894;2023-03-04T07:53:53;30.03;;;13.50;;
17384;SDS011;8810;48.680;8.894;2023-03-04T07:56:23;31.77;;;13.17;;
17384;SDS011;8810;48.680;8.894;2023-03-04T07:58:51;33.27;;;13.73;;
17384;SDS011;8810;48.680;8.894;2023-03-04T08:01:19;31.40;;;12.57;;
17384;SDS011;8810;48.680;8.894;2023-03-04T08:03:48;28.33;;;12.00;;
17384;SDS011;8810;48.680;8.894;2023-03-04T08:06:15;31.83;;;12.43;;
17384;SDS011;8810;48.680;8.894;2023-03-04T08:08:45;35.80;;;13.73;;
17384;SDS011;8810;48.680;8.894;2023-03-04T08:11:13;36.37;;;13.70;;
17384;SDS011;8810;48.680;8.894;2023-03-04T08:13:42;34.47;;;14.07;;
17384;SDS011;8810;48.680;8.894;2023-03-04T08:16:09;29.70;;;13.10;;
17384;SDS011;8810;48.680;8.894;2023-03-04T08:18:39;33.30;;;13.73;;
17384;SDS011;8810;48.680;8.894;2023-03-04T08:21:07;32.60;;;13.30;;
17384;SDS011;8810;48.680;8.894;2023-03-04T08:23:35;36.73;;;13.97;;
17384;SDS011;8810;48.680;8.894;2023-03-04T08:26:07;31.63;;;13.50;;
17384;SDS011;8810;48.680;8.894;2023-03-04T08:28:36;33.87;;;12.90;;
17384;SDS011;8810;48.680;8.894;2023-03-04T08:31:03;32.67;;;12.50;;
17384;SDS011;8810;48.680;8.894;2023-03-04T08:33:31;37.00;;;12.70;;
17384;SDS011;8810;48.680;8.894;2023-03-04T08:35:58;39.77;;;15.53;;
17384;SDS011;8810;48.680;8.894;2023-03-04T08:38:25;38.83;;;14.27;;
17384;SDS011;8810;48.680;8.894;2023-03-04T08:40:52;32.50;;;12.97;;
17384;SDS011;8810;48.680;8.894;2023-03-04T08:43:21;29.73;;;11.83;;
17384;SDS011;8810;48.680;8.894;2023-03-04T08:45:49;36.57;;;12.37;;
17384;SDS011;8810;48.680;8.894;2023-03-04T08:48:17;38.90;;;15.00;;
17384;SDS011;8810;48.680;8.894;2023-03-04T08:50:44;32.30;;;13.20;;
17384;SDS011;8810;48.680;8.894;2023-03-04T08:53:12;28.77;;;12.37;;
17384;SDS011;8810;48.680;8.894;2023-03-04T08:55:39;28.17;;;12.40;;
17384;SDS011;8810;48.680;8.894;2023-03-04T08:58:06;31.83;;;12.20;;
17384;SDS011;8810;48.680;8.894;2023-03-04T09:00:36;29.03;;;12.60;;
17384;SDS011;8810;48.680;8.894;2023-03-04T09:03:05;28.30;;;11.43;;
17384;SDS011;8810;48.680;8.894;2023-03-04T09:05:32;31.27;;;12.43;;
17384;SDS011;8810;48.680;8.894;2023-03-04T09:07:58;31.33;;;14.47;;
17384;SDS011;8810;48.680;8.894;2023-03-04T09:10:25;30.83;;;11.37;;
17384;SDS011;8810;48.680;8.894;2023-03-04T09:12:52;27.17;;;11.70;;
17384;SDS011;8810;48.680;8.894;2023-03-04T09:15:19;27.47;;;12.20;;
17384;SDS011;8810;48.680;8.894;2023-03-04T09:17:47;27.40;;;11.43;;
17384;SDS011;8810;48.680;8.894;2023-03-04T09:20:14;28.47;;;11.63;;
17384;SDS011;8810;48.680;8.894;2023-03-04T09:22:41;27.33;;;11.13;;
17384;SDS011;8810;48.680;8.894;2023-03-04T09:25:09;32.20;;;11.90;;
17384;SDS011;8810;48.680;8.894;2023-03-04T09:27:38;29.90;;;11.93;;
17384;SDS011;8810;48.680;8.894;2023-03-04T09:30:06;33.57;;;14.53;;
17384;SDS011;8810;48.680;8.894;2023-03-04T09:32:35;31.90;;;12.93;;
17384;SDS011;8810;48.680;8.894;2023-03-04T09:35:03;32.57;;;12.27;;
17384;SDS011;8810;48.680;8.894;2023-03-04T09:37:31;31.77;;;13.20;;
17384;SDS011;8810;48.680;8.894;2023-03-04T09:39:58;31.97;;;13.33;;
17384;SDS011;8810;48.680;8.894;2023-03-04T09:42:26;31.50;;;12.70;;
17384;SDS011;8810;48.680;8.894;2023-03-04T09:44:58;31.33;;;13.60;;
17384;SDS011;8810;48.680;8.894;2023-03-04T09:47:25;30.90;;;13.30;;
17384;SDS011;8810;48.680;8.894;2023-03-04T09:49:54;31.23;;;13.70;;
17384;SDS011;8810;48.680;8.894;2023-03-04T09:52:27;35.00;;;13.80;;
17384;SDS011;8810;48.680;8.894;2023-03-04T09:55:04;37.70;;;15.20;;
17384;SDS011;8810;48.680;8.894;2023-03-04T09:57:43;32.43;;;14.07;;
17384;SDS011;8810;48.680;8.894;2023-03-04T10:00:15;31.00;;;13.83;;
17384;SDS011;8810;48.680;8.894;2023-03-04T10:02:45;34.33;;;15.33;;
17384;SDS011;8810;48.680;8.894;2023-03-04T10:05:24;33.00;;;14.50;;
17384;SDS011;8810;48.680;8.894;2023-03-04T10:07:57;37.93;;;15.43;;
17384;SDS011;8810;48.680;8.894;2023-03-04T10:10:26;32.27;;;13.40;;
17384;SDS011;8810;48.680;8.894;2023-03-04T10:12:57;34.57;;;15.00;;
17384;SDS011;8810;48.680;8.894;2023-03-04T10:15:27;35.80;;;15.60;;
17384;SDS011;8810;48.680;8.894;2023-03-04T10:18:00;36.93;;;15.77;;
17384;SDS011;8810;48.680;8.894;2023-03-04T10:20:36;34.97;;;14.83;;
17384;SDS011;8810;48.680;8.894;2023-03-04T10:23:15;30.50;;;14.53;;
17384;SDS011;8810;48.680;8.894;2023-03-04T10:25:46;41.53;;;18.10;;
17384;SDS011;8810;48.680;8.894;2023-03-04T10:28:18;35.00;;;15.17;;
17384;SDS011;8810;48.680;8.894;2023-03-04T10:30:48;34.50;;;15.07;;
17384;SDS011;8810;48.680;8.894;2023-03-04T10:33:20;34.00;;;15.37;;
17384;SDS011;8810;48.680;8.894;2023-03-04T10:35:52;34.27;;;15.13;;
17384;SDS011;8810;48.680;8.894;2023-03-04T10:38:25;34.13;;;15.47;;
17384;SDS011;8810;48.680;8.894;2023-03-04T10:40:56;37.57;;;15.60;;
17384;SDS011;8810;48.680;8.894;2023-03-04T10:43:24;34.43;;;15.87;;
17384;SDS011;8810;48.680;8.894;2023-03-04T10:45:53;33.00;;;16.27;;
17384;SDS011;8810;48.680;8.894;2023-03-04T10:48:22;36.40;;;16.20;;
17384;SDS011;8810;48.680;8.894;2023-03-04T10:50:51;38.27;;;16.70;;
17384;SDS011;8810;48.680;8.894;2023-03-04T10:53:22;36.60;;;16.33;;
17384;SDS011;8810;48.680;8.894;2023-03-04T10:55:54;37.03;;;15.83;;
17384;SDS011;8810;48.680;8.894;2023-03-04T10:58:21;31.10;;;15.63;;
17384;SDS011;8810;48.680;8.894;2023-03-04T11:00:51;33.43;;;15.73;;
17384;SDS011;8810;48.680;8.894;2023-03-04T11:03:29;32.37;;;14.67;;
17384;SDS011;8810;48.680;8.894;2023-03-04T11:06:14;34.40;;;14.83;;
17384;SDS011;8810;48.680;8.894;2023-03-04T11:08:48;32.83;;;15.03;;
17384;SDS011;8810;48.680;8.894;2023-03-04T11:11:24;32.57;;;15.00;;
17384;SDS011;8810;48.680;8.894;2023-03-04T11:13:59;33.10;;;15.43;;
17384;SDS011;8810;48.680;8.894;2023-03-04T11:16:28;33.70;;;16.07;;
17384;SDS011;8810;48.680;8.894;2023-03-04T11:18:59;31.23;;;15.00;;
17384;SDS011;8810;48.680;8.894;2023-03-04T11:21:33;35.87;;;15.80;;
17384;SDS011;8810;48.680;8.894;2023-03-04T11:24:08;34.30;;;16.57;;
17384;SDS011;8810;48.680;8.894;2023-03-04T11:26:39;34.37;;;16.63;;
17384;SDS011;8810;48.680;8.894;2023-03-04T11:29:11;34.30;;;16.30;;
17384;SDS011;8810;48.680;8.894;2023-03-04T11:31:42;34.40;;;15.47;;
17384;SDS011;8810;48.680;8.894;2023-03-04T11:34:14;34.30;;;16.10;;
17384;SDS011;8810;48.680;8.894;2023-03-04T11:36:53;40.33;;;17.67;;
17384;SDS011;8810;48.680;8.894;2023-03-04T11:39:26;38.37;;;17.43;;
17384;SDS011;8810;48.680;8.894;2023-03-04T11:41:59;39.17;;;17.40;;
17384;SDS011;8810;48.680;8.894;2023-03-04T11:44:33;36.27;;;17.03;;
17384;SDS011;8810;48.680;8.894;2023-03-04T11:47:16;36.30;;;16.13;;
17384;SDS011;8810;48.680;8.894;2023-03-04T11:56:14;34.43;;;16.23;;
17384;SDS011;8810;48.680;8.894;2023-03-04T11:59:02;31.40;;;16.07;;
17384;SDS011;8810;48.680;8.894;2023-03-04T12:01:58;31.03;;;14.97;;
17384;SDS011;8810;48.680;8.894;2023-03-04T12:04:51;32.97;;;16.23;;
17384;SDS011;8810;48.680;8.894;2023-03-04T12:10:43;34.37;;;14.77;;
17384;SDS011;8810;48.680;8.894;2023-03-04T12:13:29;35.00;;;16.17;;
17384;SDS011;8810;48.680;8.894;2023-03-04T12:16:34;34.40;;;15.80;;
17384;SDS011;8810;48.680;8.894;2023-03-04T12:19:20;37.07;;;17.10;;
17384;SDS011;8810;48.680;8.894;2023-03-04T12:22:07;35.33;;;15.77;;
17384;SDS011;8810;48.680;8.894;2023-03-04T12:24:46;36.00;;;15.87;;
17384;SDS011;8810;48.680;8.894;2023-03-04T12:27:30;39.97;;;16.43;;
17384;SDS011;8810;48.680;8.894;2023-03-04T12:30:14;35.47;;;16.33;;
17384;SDS011;8810;48.680;8.894;2023-03-04T12:32:45;36.23;;;16.40;;
17384;SDS011;8810;48.680;8.894;2023-03-04T12:35:32;32.30;;;15.53;;
17384;SDS011;8810;48.680;8.894;2023-03-04T12:38:06;34.63;;;16.23;;
17384;SDS011;8810;48.680;8.894;2023-03-04T12:40:48;37.37;;;16.60;;
17384;SDS011;8810;48.680;8.894;2023-03-04T12:43:33;36.30;;;15.83;;
17384;SDS011;8810;48.680;8.894;2023-03-04T12:46:19;34.83;;;16.33;;
17384;SDS011;8810;48.680;8.894;2023-03-04T12:48:56;38.73;;;16.27;;
17384;SDS011;8810;48.680;8.894;2023-03-04T12:51:42;34.47;;;16.27;;
17384;SDS011;8810;48.680;8.894;2023-03-04T12:54:18;35.50;;;17.43;;
17384;SDS011;8810;48.680;8.894;2023-03-04T12:56:50;38.47;;;16.37;;
17384;SDS011;8810;48.680;8.894;2023-03-04T12:59:22;37.67;;;17.13;;
17384;SDS011;8810;48.680;8.894;2023-03-04T13:01:54;32.87;;;16.07;;
17384;SDS011;8810;48.680;8.894;2023-03-04T13:04:28;35.80;;;15.90;;
17384;SDS011;8810;48.680;8.894;2023-03-04T13:07:08;37.00;;;16.13;;
17384;SDS011;8810;48.680;8.894;2023-03-04T13:09:41;33.97;;;16.07;;
17384;SDS011;8810;48.680;8.894;2023-03-04T13:12:13;34.53;;;16.90;;
17384;SDS011;8810;48.680;8.894;2023-03-04T13:17:46;40.13;;;18.23;;
17384;SDS011;8810;48.680;8.894;2023-03-04T13:20:18;35.67;;;16.50;;
17384;SDS011;8810;48.680;8.894;2023-03-04T13:22:53;44.13;;;17.30;;
17384;SDS011;8810;48.680;8.894;2023-03-04T13:28:23;36.13;;;17.00;;
17384;SDS011;8810;48.680;8.894;2023-03-04T13:36:55;34.83;;;16.53;;
17384;SDS011;8810;48.680;8.894;2023-03-04T13:39:27;34.10;;;17.40;;
17384;SDS011;8810;48.680;8.894;2023-03-04T13:41:59;36.00;;;16.70;;
17384;SDS011;8810;48.680;8.894;2023-03-04T13:56:18;35.10;;;14.50;;
17384;SDS011;8810;48.680;8.894;2023-03-04T13:58:51;37.53;;;15.40;;
17384;SDS011;8810;48.680;8.894;2023-03-04T14:01:28;33.17;;;15.50;;
17384;SDS011;8810;48.680;8.894;2023-03-04T14:03:57;32.30;;;15.17;;
17384;SDS011;8810;48.680;8.894;2023-03-04T14:06:25;35.47;;;16.93;;
17384;SDS011;8810;48.680;8.894;2023-03-04T14:08:55;34.33;;;16.00;;
17384;SDS011;8810;48.680;8.894;2023-03-04T14:11:26;31.80;;;15.73;;
17384;SDS011;8810;48.680;8.894;2023-03-04T14:13:57;29.80;;;13.97;;
17384;SDS011;8810;48.680;8.894;2023-03-04T14:16:26;34.37;;;16.57;;
17384;SDS011;8810;48.680;8.894;2023-03-04T14:18:58;33.83;;;14.70;;
17384;SDS011;8810;48.680;8.894;2023-03-04T14:21:27;35.97;;;15.33;;
17384;SDS011;8810;48.680;8.894;2023-03-04T14:24:06;40.03;;;15.27;;
17384;SDS011;8810;48.680;8.894;2023-03-04T14:26:37;33.77;;;14.60;;
17384;SDS011;8810;48.680;8.894;2023-03-04T14:29:17;37.43;;;15.90;;
17384;SDS011;8810;48.680;8.894;2023-03-04T14:31:46;32.50;;;15.27;;
17384;SDS011;8810;48.680;8.894;2023-03-04T14:34:14;35.37;;;16.53;;
17384;SDS011;8810;48.680;8.894;2023-03-04T14:36:47;41.67;;;17.07;;
17384;SDS011;8810;48.680;8.894;2023-03-04T14:39:16;34.20;;;16.30;;
17384;SDS011;8810;48.680;8.894;2023-03-04T14:41:44;36.93;;;15.47;;
17384;SDS011;8810;48.680;8.894;2023-03-04T14:44:14;33.40;;;14.97;;
17384;SDS011;8810;48.680;8.894;2023-03-04T14:46:52;34.27;;;14.83;;
17384;SDS011;8810;48.680;8.894;2023-03-04T14:49:22;31.77;;;14.13;;
17384;SDS011;8810;48.680;8.894;2023-03-04T14:51:49;33.90;;;14.57;;
17384;SDS011;8810;48.680;8.894;2023-03-04T14:54:33;37.47;;;15.90;;
17384;SDS011;8810;48.680;8.894;2023-03-04T14:57:15;31.27;;;14.70;;
17384;SDS011;8810;48.680;8.894;2023-03-04T14:59:48;39.33;;;14.07;;
17384;SDS011;8810;48.680;8.894;2023-03-04T15:02:25;34.97;;;14.07;;
17384;SDS011;8810;48.680;8.894;2023-03-04T15:05:00;31.30;;;13.47;;
17384;SDS011;8810;48.680;8.894;2023-03-04T15:07:35;32.20;;;12.77;;
17384;SDS011;8810;48.680;8.894;2023-03-04T15:10:05;36.57;;;14.40;;
17384;SDS011;8810;48.680;8.894;2023-03-04T15:12:35;36.10;;;13.90;;
17384;SDS011;8810;48.680;8.894;2023-03-04T15:15:03;37.90;;;14.10;;
17384;SDS011;8810;48.680;8.894;2023-03-04T15:17:56;34.40;;;14.17;;
17384;SDS011;8810;48.680;8.894;2023-03-04T15:20:24;35.27;;;14.80;;
17384;SDS011;8810;48.680;8.894;2023-03-04T15:22:55;33.27;;;14.20;;